This is the latest recevied weather packets stored in our database for station/object LRTZ. If no packets are shown the sender has not sent any weather packets the latest 10 day(s).
| Time | Temp. | Humidity | Pressure | Rain* | Wind** | Luminosity | Snow |
|---|---|---|---|---|---|---|---|
| 1777433642 | 3.89° C | 87% | 1019 hPa | - | - | - | - |
| 1777432747 | 3.89° C | 87% | 1019 hPa | - | - | - | - |
| 1777431842 | 3.89° C | 87% | 1019 hPa | - | - | - | - |
| 1777430043 | 6.11° C | 81% | 1020 hPa | - | - | - | - |
| 1777427342 | 6.11° C | 81% | 1020 hPa | - | - | - | - |
| 1777421943 | 6.11° C | 87% | 1020 hPa | - | - | - | - |
| 1777421043 | 6.11° C | 87% | 1020 hPa | - | - | - | - |
| 1777414743 | 6.11° C | 87% | 1020 hPa | - | - | - | - |
| 1777410242 | 6.11° C | 87% | 1020 hPa | - | - | - | - |
| 1777403963 | 7.78° C | 76% | 1019 hPa | - | - | - | - |
| 1777400343 | 8.89° C | 71% | 1019 hPa | - | - | - | - |
| 1777397642 | 8.89° C | 71% | 1019 hPa | - | - | - | - |
| 1777394043 | 11.11° C | 62% | 1019 hPa | - | - | - | - |
| 1777389543 | 12.22° C | 51% | 1019 hPa | - | - | - | - |
| 1777385042 | 12.78° C | 47% | 1019 hPa | - | - | - | - |
| 1777384143 | 13.89° C | 44% | 1019 hPa | - | - | - | - |
| 1777380542 | 13.89° C | 48% | 1019 hPa | - | - | - | - |
| 1777378743 | 13.89° C | 48% | 1019 hPa | - | - | - | - |
| 1777377842 | 13.89° C | 48% | 1019 hPa | - | - | - | - |
| 1777376043 | 13.89° C | 41% | 1020 hPa | - | - | - | - |
| 1777375160 | 13.89° C | 41% | 1020 hPa | - | - | - | - |
| 1777374243 | 13.89° C | 41% | 1020 hPa | - | - | - | - |
| 1777372443 | 13.89° C | 36% | 1020 hPa | - | - | - | - |
| 1777371566 | 13.89° C | 36% | 1020 hPa | - | - | - | - |
| 1777370642 | 13.89° C | 36% | 1020 hPa | - | - | - | - |
* Rain since midnight (hover to see other rain measurements)
** Current wind speed in m/s (hover to see current wind gust speed)